createdAt,value
2022-09-06T00:10:11.447Z,37
2022-09-06T00:20:11.926Z,36
2022-09-06T00:40:13.387Z,27
2022-09-06T01:10:14.058Z,42
2022-09-06T01:20:14.876Z,43
2022-09-06T01:30:15.063Z,94
2022-09-06T01:40:15.485Z,97
2022-09-06T01:50:16.521Z,97
2022-09-06T02:00:17.122Z,98
2022-09-06T02:30:18.774Z,89
2022-09-06T02:40:19.091Z,84
2022-09-06T02:50:19.446Z,78
2022-09-06T04:30:24.374Z,40
2022-09-06T04:50:25.869Z,45
2022-09-06T05:00:26.428Z,49
2022-09-06T05:10:26.708Z,58
2022-09-06T05:30:28.037Z,66
2022-09-06T06:40:31.889Z,83
2022-09-06T06:50:32.357Z,88
2022-09-06T07:00:33.166Z,91
2022-09-06T07:30:34.654Z,97
2022-09-06T07:40:34.858Z,97
2022-09-06T07:50:49.787Z,99
2022-09-06T08:00:35.998Z,100
2022-09-06T08:10:36.106Z,100
2022-09-06T08:20:36.174Z,100
2022-09-06T08:30:36.980Z,100
2022-09-06T08:40:37.855Z,100
2022-09-06T08:50:38.779Z,100
2022-09-06T09:00:39.793Z,99
2022-09-06T09:10:40.689Z,98
2022-09-06T09:20:41.514Z,97
2022-09-06T09:30:49.267Z,98
2022-09-06T09:40:42.871Z,96
2022-09-06T09:50:43.559Z,94
2022-09-06T10:00:44.531Z,93
2022-09-06T10:10:45.336Z,92
2022-09-06T10:20:46.034Z,92
2022-09-06T10:30:46.577Z,91
2022-09-06T10:40:47.213Z,90
2022-09-06T10:50:48.142Z,90
2022-09-06T11:00:49.008Z,89
2022-09-06T11:10:49.574Z,87
2022-09-06T11:20:49.668Z,86
2022-09-06T11:30:50.051Z,86
2022-09-06T11:40:50.503Z,85
2022-09-06T11:50:50.639Z,83
2022-09-06T12:00:51.294Z,81
2022-09-06T12:10:51.499Z,82
2022-09-06T12:20:52.152Z,80
2022-09-06T12:30:52.545Z,79
2022-09-06T12:40:53.536Z,80
2022-09-06T12:50:54.223Z,80
2022-09-06T13:00:54.419Z,79
2022-09-06T13:10:55.289Z,78
2022-09-06T13:20:56.045Z,79
2022-09-06T13:30:56.781Z,79
2022-09-06T13:31:18.709Z,79
2022-09-06T13:41:13.688Z,79
2022-09-06T13:51:03.796Z,77
2022-09-06T14:01:04.764Z,78
2022-09-06T14:11:05.356Z,76
2022-09-06T14:21:05.446Z,76
2022-09-06T14:31:05.522Z,76
2022-09-06T14:41:06.210Z,74
2022-09-06T14:51:06.803Z,73
2022-09-06T15:01:07.680Z,73
2022-09-06T15:11:08.250Z,76
2022-09-06T15:21:09.103Z,73
2022-09-06T15:31:09.731Z,72
2022-09-06T15:41:09.875Z,73
2022-09-06T15:51:10.494Z,73
2022-09-06T16:01:10.836Z,73
2022-09-06T16:11:11.616Z,73
2022-09-06T16:21:12.092Z,71
2022-09-06T16:31:12.714Z,70
2022-09-06T16:41:12.885Z,71
2022-09-06T16:51:13.765Z,71
2022-09-06T17:01:14.401Z,71
2022-09-06T17:11:14.951Z,74
2022-09-06T17:21:15.938Z,76
2022-09-06T17:31:16.588Z,79
2022-09-06T17:41:16.769Z,84
2022-09-06T17:51:17.339Z,89
2022-09-06T18:01:17.766Z,91
2022-09-06T18:11:18.517Z,97
2022-09-06T18:21:18.863Z,99
2022-09-06T18:31:19.147Z,100
2022-09-06T18:41:22.669Z,100
2022-09-06T18:51:19.891Z,100
2022-09-06T19:01:20.446Z,100
2022-09-06T19:11:20.855Z,100
2022-09-06T19:21:21.150Z,100
2022-09-06T19:31:22.077Z,100
2022-09-06T19:41:22.434Z,100
2022-09-06T19:51:22.524Z,100
2022-09-06T20:01:23.411Z,100
2022-09-06T20:11:24.178Z,100
2022-09-06T20:21:24.814Z,100
2022-09-06T20:31:25.546Z,100
2022-09-06T20:51:26.812Z,99
2022-09-06T21:01:27.185Z,95
2022-09-06T21:11:27.709Z,95
2022-09-06T21:21:28.167Z,94
2022-09-06T21:31:28.486Z,93
2022-09-06T21:41:28.894Z,94
2022-09-06T21:51:29.911Z,96
2022-09-06T22:01:30.684Z,99
2022-09-06T22:11:31.153Z,100
2022-09-06T22:21:31.322Z,99
2022-09-06T22:31:32.195Z,99
2022-09-06T22:41:32.856Z,100
2022-09-06T22:51:33.304Z,100
2022-09-06T23:01:33.896Z,100
2022-09-06T23:11:34.342Z,100
2022-09-06T23:21:34.925Z,100
2022-09-06T23:31:35.537Z,100
2022-09-06T23:41:36.266Z,100
2022-09-06T23:51:37.035Z,100
